createdAt,value
2018-12-08T00:02:49.907Z,9.12
2018-12-08T00:05:54.110Z,9.41
2018-12-08T00:08:58.325Z,9.70
2018-12-08T00:12:02.409Z,9.89
2018-12-08T00:15:06.841Z,9.53
2018-12-08T00:18:10.921Z,9.35
2018-12-08T00:21:14.994Z,9.49
2018-12-08T00:24:19.071Z,9.22
2018-12-08T00:27:28.573Z,9.15
2018-12-08T00:30:50.225Z,9.10
2018-12-08T00:33:54.486Z,8.84
2018-12-08T00:36:58.563Z,8.68
2018-12-08T00:40:02.989Z,8.39
2018-12-08T00:43:07.085Z,8.34
2018-12-08T00:46:11.156Z,8.24
2018-12-08T00:49:15.235Z,8.56
2018-12-08T00:55:48.278Z,8.31
2018-12-08T00:58:52.349Z,8.30
2018-12-08T01:01:57.007Z,8.31
2018-12-08T01:05:01.086Z,8.36
2018-12-08T01:08:05.370Z,8.33
2018-12-08T01:11:09.436Z,8.45
2018-12-08T01:14:13.496Z,8.48
2018-12-08T01:17:17.570Z,8.43
2018-12-08T01:20:22.336Z,8.25
2018-12-08T01:23:26.398Z,8.15
2018-12-08T01:26:30.673Z,8.22
2018-12-08T01:29:34.797Z,8.31
2018-12-08T01:32:39.009Z,8.33
2018-12-08T01:35:43.157Z,8.38
2018-12-08T01:38:47.224Z,8.18
2018-12-08T01:45:07.929Z,8.01
2018-12-08T01:48:12.082Z,7.92
2018-12-08T01:51:16.222Z,7.76
2018-12-08T01:54:20.381Z,7.70
2018-12-08T01:57:24.513Z,7.71
2018-12-08T02:00:28.625Z,7.68
2018-12-08T02:03:32.762Z,7.66
2018-12-08T02:06:37.536Z,7.69
2018-12-08T02:09:41.608Z,7.76
2018-12-08T02:12:45.689Z,7.76
2018-12-08T02:15:49.748Z,7.83
2018-12-08T02:18:53.822Z,7.78
2018-12-08T02:21:57.957Z,7.53
2018-12-08T02:25:02.097Z,7.50
2018-12-08T02:28:06.202Z,7.31
2018-12-08T02:31:10.293Z,7.38
2018-12-08T02:34:14.465Z,7.34
2018-12-08T02:37:18.528Z,7.26
2018-12-08T02:40:22.604Z,7.10
2018-12-08T02:43:26.736Z,7.09
2018-12-08T02:46:30.817Z,6.97
2018-12-08T02:49:34.963Z,6.93
2018-12-08T02:52:39.018Z,7.02
2018-12-08T02:55:43.093Z,7.02
2018-12-08T02:58:47.155Z,7.14
2018-12-08T03:01:51.246Z,6.98
2018-12-08T03:04:55.328Z,6.93
2018-12-08T03:07:59.385Z,7.01
2018-12-08T03:11:03.462Z,7.01
2018-12-08T03:14:07.537Z,7.08
2018-12-08T03:17:11.608Z,7.09
2018-12-08T03:20:15.672Z,6.97
2018-12-08T03:23:19.785Z,6.92
2018-12-08T03:26:24.937Z,6.82
2018-12-08T03:29:29.005Z,6.73
2018-12-08T03:32:33.137Z,6.71
2018-12-08T03:35:37.194Z,6.66
2018-12-08T03:38:41.275Z,6.70
2018-12-08T03:41:45.377Z,6.63
2018-12-08T03:44:49.429Z,6.48
2018-12-08T03:47:53.511Z,6.36
2018-12-08T03:50:57.644Z,6.43
2018-12-08T03:54:02.700Z,6.56
2018-12-08T03:57:06.812Z,6.58
2018-12-08T04:00:11.086Z,6.57
2018-12-08T04:03:15.150Z,6.61
2018-12-08T04:06:19.201Z,6.82
2018-12-08T04:09:23.288Z,6.95
2018-12-08T04:12:27.401Z,6.65
2018-12-08T04:15:31.492Z,6.53
2018-12-08T04:18:35.624Z,6.43
2018-12-08T04:21:39.702Z,6.50
2018-12-08T04:24:44.041Z,6.52
2018-12-08T04:27:48.157Z,6.31
2018-12-08T04:30:52.382Z,6.27
2018-12-08T04:33:56.491Z,6.25
2018-12-08T04:37:00.513Z,6.24
2018-12-08T04:40:05.588Z,6.12
2018-12-08T04:43:09.704Z,6.15
2018-12-08T04:46:13.778Z,6.19
2018-12-08T04:49:17.876Z,6.17
2018-12-08T04:52:22.013Z,6.04
2018-12-08T04:55:26.204Z,6.02
2018-12-08T04:58:30.218Z,5.99
2018-12-08T05:01:34.298Z,6.01
2018-12-08T05:04:38.509Z,5.95
2018-12-08T05:07:42.587Z,6.01
2018-12-08T05:10:46.651Z,5.89
2018-12-08T05:13:50.704Z,5.87
2018-12-08T05:16:54.844Z,5.85
2018-12-08T05:19:58.906Z,5.98
2018-12-08T05:23:03.067Z,5.98
2018-12-08T05:26:07.200Z,5.98
2018-12-08T05:29:11.256Z,5.97
2018-12-08T05:32:15.337Z,6.00
2018-12-08T05:35:19.445Z,6.00
2018-12-08T05:38:23.520Z,6.00
2018-12-08T05:41:27.576Z,6.04
2018-12-08T05:44:31.629Z,5.96
2018-12-08T05:47:35.704Z,6.02
2018-12-08T05:50:39.757Z,6.01
2018-12-08T05:53:43.900Z,6.03
2018-12-08T05:56:47.948Z,5.99
2018-12-08T05:59:52.032Z,6.07
2018-12-08T06:02:56.118Z,6.00
2018-12-08T06:06:00.160Z,5.98
2018-12-08T06:09:06.045Z,6.02
2018-12-08T06:12:10.124Z,5.98
2018-12-08T06:15:14.267Z,6.02
2018-12-08T06:18:18.413Z,6.03
2018-12-08T06:21:32.720Z,6.18
2018-12-08T06:24:36.785Z,6.20
2018-12-08T06:27:48.441Z,6.24
2018-12-08T06:30:52.567Z,6.27
2018-12-08T06:33:56.685Z,6.24
2018-12-08T06:37:00.769Z,6.26
2018-12-08T06:40:06.832Z,6.23
2018-12-08T06:43:10.881Z,6.30
2018-12-08T06:49:48.285Z,6.28
2018-12-08T06:52:52.357Z,6.25
2018-12-08T07:02:37.993Z,6.06
2018-12-08T07:05:42.070Z,6.07
2018-12-08T07:08:49.961Z,6.14
2018-12-08T07:11:54.052Z,6.15
2018-12-08T07:14:58.215Z,6.09
2018-12-08T07:18:02.870Z,6.21
2018-12-08T07:24:48.525Z,6.33
2018-12-08T07:27:52.617Z,6.39
2018-12-08T07:30:56.673Z,6.49
2018-12-08T07:34:06.320Z,6.47
2018-12-08T07:40:48.927Z,6.55
2018-12-08T07:43:52.962Z,6.47
2018-12-08T07:50:48.633Z,6.64
2018-12-08T07:53:52.830Z,6.91
2018-12-08T07:56:56.914Z,6.73
2018-12-08T08:03:49.825Z,6.79
2018-12-08T08:06:54.972Z,6.88
2018-12-08T08:09:59.041Z,6.83
2018-12-08T08:13:03.188Z,6.80
2018-12-08T08:16:07.259Z,6.76
2018-12-08T08:19:11.341Z,6.86
2018-12-08T08:22:15.442Z,6.92
2018-12-08T08:25:19.666Z,6.94
2018-12-08T08:28:23.756Z,7.06
2018-12-08T08:31:27.833Z,7.16
2018-12-08T08:34:31.904Z,7.11
2018-12-08T08:37:35.973Z,7.32
2018-12-08T08:40:40.133Z,7.60
2018-12-08T08:43:44.979Z,7.52
2018-12-08T08:46:49.099Z,7.54
2018-12-08T08:49:53.217Z,8.07
2018-12-08T08:52:57.433Z,7.89
2018-12-08T08:56:01.830Z,7.86
2018-12-08T08:59:05.924Z,8.10
2018-12-08T09:02:10.066Z,8.21
2018-12-08T09:05:14.141Z,8.06
2018-12-08T09:08:18.196Z,8.18
2018-12-08T09:11:22.336Z,8.29
2018-12-08T09:14:26.379Z,8.36
2018-12-08T09:17:30.472Z,7.98
2018-12-08T09:20:34.575Z,7.74
2018-12-08T09:23:38.622Z,7.97
2018-12-08T09:26:42.760Z,7.82
2018-12-08T09:29:46.881Z,7.91
2018-12-08T09:32:51.052Z,7.98
2018-12-08T09:35:55.235Z,8.19
2018-12-08T09:38:59.307Z,8.39
2018-12-08T09:42:03.394Z,8.55
2018-12-08T09:45:07.683Z,8.50
2018-12-08T09:48:11.764Z,8.38
2018-12-08T09:51:15.941Z,8.57
2018-12-08T09:54:20.014Z,8.62
2018-12-08T09:57:24.101Z,8.60
2018-12-08T10:00:28.150Z,8.79
2018-12-08T10:03:32.217Z,8.50
2018-12-08T10:06:36.442Z,8.52
2018-12-08T10:09:40.630Z,8.51
2018-12-08T10:12:44.797Z,8.31
2018-12-08T10:15:48.862Z,8.36
2018-12-08T10:18:52.972Z,8.34
2018-12-08T10:21:57.025Z,8.31
2018-12-08T10:25:01.108Z,8.67
2018-12-08T10:28:05.181Z,8.79
2018-12-08T10:31:09.393Z,8.94
2018-12-08T10:34:13.586Z,8.93
2018-12-08T10:37:17.667Z,8.91
2018-12-08T10:40:21.734Z,8.73
2018-12-08T10:43:25.805Z,8.58
2018-12-08T10:46:29.948Z,8.43
2018-12-08T10:49:34.035Z,8.55
2018-12-08T10:52:38.107Z,8.55
2018-12-08T10:55:44.166Z,8.47
2018-12-08T10:58:48.210Z,8.47
2018-12-08T11:05:21.285Z,8.25
2018-12-08T11:08:25.345Z,8.81
2018-12-08T11:11:29.489Z,9.59
2018-12-08T11:14:33.572Z,9.32
2018-12-08T11:17:48.779Z,9.54
2018-12-08T11:20:52.869Z,9.91
2018-12-08T11:23:57.017Z,11.37
2018-12-08T11:27:01.147Z,10.77
2018-12-08T11:30:05.839Z,10.33
2018-12-08T11:33:09.945Z,9.82
2018-12-08T11:39:50.266Z,9.63
2018-12-08T11:42:54.359Z,9.47
2018-12-08T11:45:58.461Z,9.61
2018-12-08T11:49:02.575Z,9.56
2018-12-08T11:52:06.716Z,9.45
2018-12-08T11:58:48.797Z,9.37
2018-12-08T12:01:53.014Z,9.42
2018-12-08T12:04:57.105Z,9.07
2018-12-08T12:08:13.098Z,9.18
2018-12-08T12:11:17.339Z,9.41
2018-12-08T12:14:47.277Z,9.30
2018-12-08T12:17:51.441Z,9.13
2018-12-08T12:20:55.514Z,9.21
2018-12-08T12:23:59.660Z,9.18
2018-12-08T12:27:03.790Z,9.11
2018-12-08T12:30:09.689Z,9.34
2018-12-08T12:33:13.765Z,9.46
2018-12-08T12:36:17.862Z,9.56
2018-12-08T12:39:21.941Z,9.46
2018-12-08T12:45:50.629Z,9.36
2018-12-08T12:48:54.737Z,9.06
2018-12-08T12:51:58.841Z,8.90
2018-12-08T12:55:02.984Z,9.02
2018-12-08T12:58:07.049Z,9.27
2018-12-08T13:01:11.187Z,9.47
2018-12-08T13:04:15.342Z,9.35
2018-12-08T13:07:19.429Z,9.40
2018-12-08T13:10:23.510Z,9.37
2018-12-08T13:13:27.619Z,9.55
2018-12-08T13:16:48.279Z,9.49
2018-12-08T13:19:52.343Z,9.33
2018-12-08T13:22:56.415Z,9.32
2018-12-08T13:26:00.485Z,9.32
2018-12-08T13:29:04.549Z,9.02
2018-12-08T13:32:08.633Z,8.73
2018-12-08T13:39:04.695Z,8.85
2018-12-08T13:42:08.782Z,8.59
2018-12-08T13:45:17.161Z,8.56
2018-12-08T13:48:21.514Z,8.99
2018-12-08T13:51:25.584Z,9.03
2018-12-08T13:54:48.254Z,9.28
2018-12-08T13:57:52.345Z,9.34
2018-12-08T14:00:56.444Z,9.17
2018-12-08T14:04:00.521Z,9.25
2018-12-08T14:07:04.572Z,9.34
2018-12-08T14:10:09.754Z,9.20
2018-12-08T14:13:13.894Z,8.97
2018-12-08T14:16:17.966Z,8.99
2018-12-08T14:19:22.069Z,8.98
2018-12-08T14:22:26.155Z,8.95
2018-12-08T14:28:50.106Z,8.73
2018-12-08T14:31:54.632Z,8.78
2018-12-08T14:34:58.777Z,8.91
2018-12-08T14:38:02.905Z,8.92
2018-12-08T14:41:07.049Z,8.98
2018-12-08T14:44:11.155Z,9.01
2018-12-08T14:47:15.245Z,8.89
2018-12-08T14:50:19.342Z,9.03
2018-12-08T14:53:23.465Z,9.01
2018-12-08T14:56:27.639Z,8.89
2018-12-08T14:59:48.660Z,8.81
2018-12-08T15:02:52.767Z,8.57
2018-12-08T15:05:56.851Z,8.71
2018-12-08T15:09:01.578Z,8.75
2018-12-08T15:12:06.755Z,8.76
2018-12-08T15:15:10.957Z,8.89
2018-12-08T15:25:48.291Z,8.60
2018-12-08T15:32:07.234Z,8.69
2018-12-08T15:45:50.730Z,8.91
2018-12-08T15:48:54.818Z,8.98
2018-12-08T15:51:58.950Z,9.02
2018-12-08T15:55:03.035Z,9.03
2018-12-08T15:58:07.114Z,9.04
2018-12-08T16:11:47.954Z,9.17
2018-12-08T16:18:07.205Z,9.15
2018-12-08T16:39:10.826Z,8.92
2018-12-08T16:42:14.928Z,8.96
2018-12-08T16:45:20.416Z,9.09
2018-12-08T16:48:24.492Z,9.20
2018-12-08T16:51:28.628Z,9.06
2018-12-08T16:54:32.824Z,9.03
2018-12-08T16:57:36.881Z,9.05
2018-12-08T17:00:41.141Z,9.16
2018-12-08T17:03:45.394Z,9.20
2018-12-08T17:06:50.531Z,9.38
2018-12-08T17:09:54.743Z,9.33
2018-12-08T17:12:58.834Z,9.12
2018-12-08T17:16:03.157Z,9.28
2018-12-08T17:19:07.314Z,9.39
2018-12-08T17:22:11.767Z,9.45
2018-12-08T17:25:15.933Z,9.35
2018-12-08T17:28:20.030Z,9.16
2018-12-08T17:31:24.136Z,9.24
2018-12-08T17:34:28.275Z,9.22
2018-12-08T17:37:32.466Z,9.18
2018-12-08T17:40:36.529Z,9.25
2018-12-08T17:43:40.631Z,9.17
2018-12-08T17:46:44.739Z,9.05
2018-12-08T17:49:48.862Z,9.03
2018-12-08T17:52:52.917Z,9.07
2018-12-08T17:55:56.986Z,9.07
2018-12-08T17:59:01.077Z,9.09
2018-12-08T18:02:05.458Z,9.17
2018-12-08T18:05:09.757Z,9.14
2018-12-08T18:08:13.884Z,9.12
2018-12-08T18:11:17.955Z,8.98
2018-12-08T18:14:22.011Z,8.86
2018-12-08T18:17:26.099Z,8.89
2018-12-08T18:20:30.179Z,8.90
2018-12-08T18:23:34.240Z,8.73
2018-12-08T18:26:38.330Z,8.75
2018-12-08T18:29:42.410Z,8.71
2018-12-08T18:32:46.548Z,8.76
2018-12-08T18:35:50.619Z,8.94
2018-12-08T18:38:54.698Z,8.82
2018-12-08T18:42:00.822Z,8.64
2018-12-08T18:45:06.322Z,8.71
2018-12-08T18:48:10.467Z,8.76
2018-12-08T18:51:14.596Z,8.80
2018-12-08T18:54:18.672Z,8.83
2018-12-08T18:57:22.760Z,8.85
2018-12-08T19:00:26.968Z,8.92
2018-12-08T19:03:31.040Z,8.96
2018-12-08T19:06:35.121Z,8.87
2018-12-08T19:09:39.189Z,8.81
2018-12-08T19:12:43.262Z,8.81
2018-12-08T19:15:47.314Z,8.87
2018-12-08T19:18:52.380Z,8.84
2018-12-08T19:21:56.511Z,8.80
2018-12-08T19:25:00.582Z,8.84
2018-12-08T19:28:04.870Z,8.75
2018-12-08T19:31:08.996Z,8.60
2018-12-08T19:41:47.679Z,8.69
2018-12-08T19:44:51.764Z,8.71
2018-12-08T19:47:55.824Z,8.83
2018-12-08T19:50:59.917Z,8.77
2018-12-08T19:54:04.115Z,8.75
2018-12-08T19:57:08.210Z,8.81
2018-12-08T20:00:12.459Z,8.79
2018-12-08T20:03:17.847Z,8.80
2018-12-08T20:06:21.937Z,8.65
2018-12-08T20:09:26.006Z,8.59
2018-12-08T20:12:30.072Z,8.73
2018-12-08T20:15:35.154Z,8.82
2018-12-08T20:21:50.372Z,8.78
2018-12-08T20:24:54.493Z,8.79
2018-12-08T20:27:58.567Z,8.63
2018-12-08T20:31:02.632Z,8.87
2018-12-08T20:34:06.718Z,8.96
2018-12-08T20:37:10.798Z,8.94
2018-12-08T20:40:14.950Z,9.01
2018-12-08T20:43:19.017Z,8.84
2018-12-08T20:46:23.072Z,8.86
2018-12-08T20:49:28.121Z,8.78
2018-12-08T20:52:33.090Z,8.87
2018-12-08T20:55:37.165Z,8.88
2018-12-08T20:58:41.251Z,8.87
2018-12-08T21:01:45.330Z,8.77
2018-12-08T21:04:49.399Z,8.70
2018-12-08T21:07:53.461Z,8.76
2018-12-08T21:10:58.502Z,8.55
2018-12-08T21:14:02.721Z,8.48
2018-12-08T21:17:06.784Z,8.39
2018-12-08T21:20:10.871Z,8.40
2018-12-08T21:23:14.946Z,8.56
2018-12-08T21:26:19.076Z,8.70
2018-12-08T21:29:23.155Z,8.90
2018-12-08T21:32:27.210Z,8.69
2018-12-08T21:35:31.302Z,8.77
2018-12-08T21:38:35.370Z,8.80
2018-12-08T21:41:39.430Z,8.78
2018-12-08T21:44:43.512Z,8.83
2018-12-08T21:47:47.613Z,8.82
2018-12-08T21:50:51.696Z,8.97
2018-12-08T21:53:55.757Z,9.20
2018-12-08T21:57:00.811Z,9.05
2018-12-08T22:00:07.657Z,9.09
2018-12-08T22:03:11.797Z,9.11
2018-12-08T22:06:15.882Z,8.90
2018-12-08T22:09:19.993Z,8.84
2018-12-08T22:12:24.080Z,8.88
2018-12-08T22:15:28.142Z,8.69
2018-12-08T22:18:32.236Z,8.68
2018-12-08T22:21:36.317Z,8.66
2018-12-08T22:24:40.365Z,8.88
2018-12-08T22:27:44.474Z,8.97
2018-12-08T22:30:50.348Z,9.21
2018-12-08T22:33:54.468Z,9.29
2018-12-08T22:36:58.538Z,9.17
2018-12-08T22:40:02.677Z,9.10
2018-12-08T22:43:06.749Z,9.18
2018-12-08T22:46:10.813Z,9.22
2018-12-08T22:49:14.891Z,9.32
2018-12-08T22:52:18.957Z,9.44
2018-12-08T22:55:23.028Z,9.42
2018-12-08T22:58:27.111Z,9.45
2018-12-08T23:01:32.707Z,9.42
2018-12-08T23:04:37.591Z,9.39
2018-12-08T23:07:41.714Z,9.55
2018-12-08T23:10:45.942Z,9.63
2018-12-08T23:17:08.953Z,9.78
2018-12-08T23:20:13.184Z,9.68
2018-12-08T23:23:17.252Z,9.88
2018-12-08T23:26:21.345Z,10.12
2018-12-08T23:29:25.473Z,10.03
2018-12-08T23:32:29.578Z,10.15
2018-12-08T23:35:33.671Z,10.16
2018-12-08T23:38:37.806Z,10.16
2018-12-08T23:41:41.954Z,10.12
2018-12-08T23:44:46.085Z,10.09
2018-12-08T23:47:50.205Z,10.12
2018-12-08T23:54:47.860Z,10.17
